KEKQ

Details ICAO KEKQ
Name WAYNE CO
Region United States
Timezone America/Kentucky/Monticello (UTC-5.0)
Plans Departing 0
Arriving 1
Stats Elevation 963 ft / 294 m (AMSL)
Location 36.855263° -84.856125°
Runways 1
Magnetic Variation 5.254° W
Sunrise 2017-12-16 12:47:14 UTC / 2017-12-16 07:47:14 Local
Sunset 2017-12-16 22:25:52 UTC / 2017-12-16 17:25:52 Local
Advertisement - Login to hide

Runways

ID Width Length Bearing (true) Bearing (mag) Surface Threshold Offset Overrun Length
03 75 ft / 23 m 4,002 ft / 1,220 m 35.64° 40.89° Asphalt 0 ft / 0 m 0 ft / 0 m
21 75 ft / 23 m 4,002 ft / 1,220 m 215.65° 220.90° Asphalt 0 ft / 0 m 0 ft / 0 m

Map

Weather


0- 5 10 15 20 25 30 35+ Temperature / ° C

Clouds and Precipitation
Forecast for 2017-12-17 06:00 UTC. Updated an hour ago

Ground ~20,000 ft ~40,000 ft Winds

METAR

KEKQ 170356Z AUTO 03007KT 300V070 10SM CLR M02/M03 A3025 RMK AO2 SLP271 T10171033 401001072

TAF

Not found

Frequencies

Recorded 118.82 MHz ASOS
Unicom 122.80 MHz CTAF/UNICOM
Warning: Do not use this data for real-world aviation or navigation. No guarantee of current accuracy is given.